Terminal Aerodrome Forecast
Issued by NWS

Current Version | Previous Version | Text Only | Print | Product List | Glossary Off
Versions: 1 2 3 4 5 6 7 8 9 10 11 12 13 14 15 16

000
FTUS41 KRNK 250520
TAFLWB
TAF
KLWB 250520Z 2506/2606 00000KT P6SM SKC
     FM250800 00000KT 4SM BR SCT001
     FM251000 00000KT 1/2SM FG VV001
     FM251400 26007KT P6SM SCT050 SCT250
     FM251900 27006KT P6SM VCSH BKN050
     FM260200 00000KT P6SM SCT050 BKN120=

USA.gov is the U.S. government's official web portal to all federal, state and local government web resources and services.